FW8879 Weather Reports


Display with metric or nautical units.
time (UTC)temp
F
wind
direction
speed
MPH
gust
MPH
rain 1hr
in
rain 24hr
in
rain mn
in
humidity
%
barometer
mb
20210615190714 93 78 3.0 4.0 0.00 0.00 0.00 44 1014.6
20210615190214 92 25 6.0 6.0 0.00 0.00 0.00 48 1014.6
20210615185702 93 25 5.0 6.0 0.00 0.00 0.00 45 1014.6
20210615185201 92 36 2.0 2.0 0.00 0.00 0.00 45 1014.6
20210615184655 92 348 4.0 4.0 0.00 0.00 0.00 49 1014.6
20210615184153 93 39 3.0 4.0 0.00 0.00 0.00 49 1014.6
20210615183649 92 164 3.0 3.0 0.00 0.00 0.00 48 1015.0
20210615183146 93 30 3.0 4.0 0.00 0.00 0.00 52 1014.6
20210615182640 93 330 5.0 5.0 0.00 0.00 0.00 49 1015.0
20210615182136 92 60 3.0 3.0 0.00 0.00 0.00 49 1015.0
20210615181634 91 80 2.0 2.0 0.00 0.00 0.00 50 1015.0
20210615181131 91 6 2.0 2.0 0.00 0.00 0.00 50 1015.0
20210615180627 90 12 2.0 2.0 0.00 0.00 0.00 59 1015.0
20210615180118 90 18 4.0 4.0 0.00 0.00 0.00 60 1015.3
20210615175607 90 348 2.0 2.0 0.00 0.00 0.00 60 1015.0
20210615175106 92 6 6.0 6.0 0.00 0.00 0.00 54 1015.0
20210615174601 92 336 3.0 4.0 0.00 0.00 0.00 54 1015.0
20210615174053 92 6 2.0 2.0 0.00 0.00 0.00 51 1015.0
20210615173550 92 354 2.0 2.0 0.00 0.00 0.00 47 1015.3
20210615173043 92 336 4.0 5.0 0.00 0.00 0.00 55 1015.3
20210615172543 91 348 3.0 3.0 0.00 0.00 0.00 53 1015.0
20210615171623 91 54 2.0 2.0 0.00 0.00 0.00 57 1015.3
20210615171123 90 150 2.0 2.0 0.00 0.00 0.00 61 1015.3
20210615170620 90 12 2.0 2.0 0.00 0.00 0.00 59 1015.3
20210615170117 90 354 3.0 4.0 0.00 0.00 0.00 57 1015.0
20210615165609 91 72 3.0 3.0 0.00 0.00 0.00 62 1015.0
20210615165106 92 59 3.0 3.0 0.00 0.00 0.00 56 1015.3
20210615164604 91 5 3.0 3.0 0.00 0.00 0.00 56 1015.3
20210615164101 91 318 0.0 0.0 0.00 0.00 0.00 58 1015.3
20210615163558 91 80 2.0 2.0 0.00 0.00 0.00 61 1015.3
20210615163040 91 47 2.0 2.0 0.00 0.00 0.00 62 1015.3
20210615162539 90 12 3.0 4.0 0.00 0.00 0.00 64 1015.7
20210615162034 89 0 3.0 4.0 0.00 0.00 0.00 63 1015.7
20210615161532 90 330 3.0 3.0 0.00 0.00 0.00 63 1015.3
20210615161026 89 83 2.0 2.0 0.00 0.00 0.00 64 1015.3
20210615160521 91 36 2.0 2.0 0.00 0.00 0.00 63 1015.3
20210615160013 90 78 2.0 2.0 0.00 0.00 0.00 62 1015.3
20210615155509 89 348 2.0 2.0 0.00 0.00 0.00 65 1015.3
20210615155009 90 59 2.0 2.0 0.00 0.00 0.00 65 1015.3
20210615154504 89 120 2.0 2.0 0.00 0.00 0.00 65 1015.3
20210615153958 89 342 2.0 2.0 0.00 0.00 0.00 67 1015.3
20210615153453 89 336 3.0 3.0 0.00 0.00 0.00 65 1015.3
20210615152949 88 6 4.0 4.0 0.00 0.00 0.00 63 1015.3
20210615152447 89 288 2.0 2.0 0.00 0.00 0.00 66 1015.3
20210615151942 87 342 2.0 2.0 0.00 0.00 0.00 64 1015.3
20210615151436 89 48 2.0 2.0 0.00 0.00 0.00 65 1015.3
20210615150935 87 5 0.0 0.0 0.00 0.00 0.00 67 1015.3
20210615150429 88 59 0.0 0.0 0.00 0.00 0.00 64 1015.7
20210615145927 87 53 2.0 2.0 0.00 0.00 0.00 70 1015.7
20210615145423 87 348 3.0 3.0 0.00 0.00 0.00 67 1015.7
20210615144921 86 68 0.0 0.0 0.00 0.00 0.00 68 1015.3
20210615144416 85 102 2.0 2.0 0.00 0.00 0.00 69 1015.7
20210615143913 86 60 2.0 2.0 0.00 0.00 0.00 68 1015.7
20210615143403 84 132 2.0 2.0 0.00 0.00 0.00 72 1015.7
20210615142846 87 18 2.0 2.0 0.00 0.00 0.00 71 1016.0
20210615142341 85 30 1.0 1.0 0.00 0.00 0.00 70 1015.7
20210615141838 85 123 2.0 2.0 0.00 0.00 0.00 71 1015.7
20210615141336 85 126 1.0 1.0 0.00 0.00 0.00 74 1015.3
20210615140835 85 25 0.0 0.0 0.00 0.00 0.00 71 1015.3
20210615140330 84 40 2.0 2.0 0.00 0.00 0.00 74 1015.0
20210615135824 85 74 1.0 1.0 0.00 0.00 0.00 73 1015.3
20210615135319 84 79 2.0 2.0 0.00 0.00 0.00 79 1015.3
20210615134816 83 83 2.0 2.0 0.00 0.00 0.00 80 1015.3
20210615134313 83 126 2.0 2.0 0.00 0.00 0.00 82 1015.3
20210615133808 82 90 0.0 0.0 0.00 0.00 0.00 81 1015.0
20210615133307 82 131 2.0 2.0 0.00 0.00 0.00 82 1015.3
20210615132803 83 84 0.0 0.0 0.00 0.00 0.00 82 1015.3
20210615132256 83 84 0.0 0.0 0.00 0.00 0.00 79 1015.3
20210615131751 82 84 0.0 0.0 0.00 0.00 0.00 84 1015.0
20210615131244 80 330 0.0 0.0 0.00 0.00 0.00 83 1015.0
20210615130735 79 308 0.0 0.0 0.00 0.00 0.00 87 1015.0
20210615130235 78 308 1.0 1.0 0.00 0.00 0.00 87 1015.0
20210615125733 78 304 0.0 0.0 0.00 0.00 0.00 88 1015.0
20210615125232 78 304 0.0 0.0 0.00 0.00 0.00 88 1015.0
20210615124725 78 304 0.0 0.0 0.00 0.00 0.00 88 1015.0
20210615124224 78 304 0.0 0.0 0.00 0.00 0.00 88 1015.0
20210615123721 78 304 0.0 0.0 0.00 0.00 0.00 89 1015.0
20210615123220 78 304 0.0 0.0 0.00 0.00 0.00 89 1014.6
20210615122717 77 304 0.0 0.0 0.00 0.00 0.00 90 1014.6
20210615122212 76 304 0.0 0.0 0.00 0.00 0.00 91 1014.6
20210615121710 76 304 0.0 0.0 0.00 0.00 0.00 92 1014.6
20210615121205 76 302 0.0 0.0 0.00 0.00 0.00 92 1014.6
20210615120700 76 302 0.0 0.0 0.00 0.00 0.00 92 1014.3
20210615120152 76 302 0.0 0.0 0.00 0.00 0.00 92 1014.6
20210615115652 76 302 0.0 0.0 0.00 0.00 0.00 93 1014.3
20210615115149 76 302 0.0 0.0 0.00 0.00 0.00 93 1014.6
20210615114647 75 302 0.0 0.0 0.00 0.00 0.00 93 1014.3
20210615114144 75 302 0.0 0.0 0.00 0.00 0.00 93 1014.6
20210615113640 75 302 0.0 0.0 0.00 0.00 0.00 93 1014.3
20210615113134 75 302 0.0 0.0 0.00 0.00 0.00 93 1014.6
20210615112626 75 302 0.0 0.0 0.00 0.00 0.00 93 1014.3
20210615112124 75 302 1.0 1.0 0.00 0.00 0.00 93 1014.3
20210615111610 75 302 0.0 0.0 0.00 0.00 0.00 93 1014.3
20210615111107 75 304 0.0 0.0 0.00 0.00 0.00 93 1014.3
20210615110603 75 302 0.0 0.0 0.00 0.00 0.00 93 1014.0
20210615110103 75 304 0.0 0.0 0.00 0.00 0.00 93 1014.0
20210615105558 75 302 0.0 0.0 0.00 0.00 0.00 93 1014.3
20210615105056 75 302 0.0 0.0 0.00 0.00 0.00 93 1014.0
20210615104553 75 304 0.0 0.0 0.00 0.00 0.00 93 1014.0
20210615104047 75 302 0.0 0.0 0.00 0.00 0.00 93 1014.0
20210615103545 75 302 0.0 0.0 0.00 0.00 0.00 93 1014.0
20210615103041 75 302 0.0 0.0 0.00 0.00 0.00 93 1013.6
20210615102538 75 302 0.0 0.0 0.00 0.00 0.00 93 1014.0
20210615102035 75 302 0.0 0.0 0.00 0.00 0.00 92 1014.0
20210615101530 75 302 0.0 0.0 0.00 0.00 0.00 92 1014.0
20210615101028 75 302 0.0 0.0 0.00 0.00 0.00 92 1014.0
20210615100521 75 302 0.0 0.0 0.00 0.00 0.00 92 1013.6
20210615100018 75 302 0.0 0.0 0.00 0.00 0.00 92 1013.6
20210615095516 75 302 0.0 0.0 0.00 0.00 0.00 92 1013.6
20210615095013 76 302 0.0 0.0 0.00 0.00 0.00 91 1013.6
20210615094509 76 302 0.0 0.0 0.00 0.00 0.00 91 1014.0
20210615094005 76 302 0.0 0.0 0.00 0.00 0.00 91 1013.6
20210615093501 76 302 0.0 0.0 0.00 0.00 0.00 91 1013.6
20210615092958 76 302 0.0 0.0 0.00 0.00 0.00 91 1014.0
20210615092449 76 302 0.0 0.0 0.00 0.00 0.00 91 1014.0
20210615091946 76 302 0.0 0.0 0.00 0.00 0.00 90 1013.6
20210615091445 76 302 0.0 0.0 0.00 0.00 0.00 90 1013.6
20210615090939 76 302 0.0 0.0 0.00 0.00 0.00 90 1013.6
20210615090429 76 302 0.0 0.0 0.00 0.00 0.00 90 1013.6
20210615085922 76 302 0.0 0.0 0.00 0.00 0.00 90 1014.0
20210615085418 77 304 0.0 0.0 0.00 0.00 0.00 89 1014.0
20210615084915 77 304 0.0 0.0 0.00 0.00 0.00 88 1013.6
20210615084412 77 304 0.0 0.0 0.00 0.00 0.00 88 1014.0
20210615083907 77 304 0.0 0.0 0.00 0.00 0.00 87 1014.0
20210615083406 77 304 0.0 0.0 0.00 0.00 0.00 88 1014.0
20210615082901 77 304 0.0 0.0 0.00 0.00 0.00 88 1014.0
20210615082401 77 304 0.0 0.0 0.00 0.00 0.00 88 1014.0
20210615081856 77 304 0.0 0.0 0.00 0.00 0.00 88 1013.6
20210615081354 77 304 0.0 0.0 0.00 0.00 0.00 88 1013.6
20210615080849 77 304 2.0 2.0 0.00 0.00 0.00 88 1013.6
20210615080342 77 304 2.0 2.0 0.00 0.00 0.00 89 1014.0
20210615075838 76 300 0.0 0.0 0.00 0.00 0.00 89 1013.6
20210615075331 76 300 0.0 0.0 0.00 0.00 0.00 89 1014.0
20210615074830 76 300 0.0 0.0 0.00 0.00 0.00 90 1013.6
20210615074324 76 300 0.0 0.0 0.00 0.00 0.00 89 1013.3
20210615073819 76 300 0.0 0.0 0.00 0.00 0.00 89 1013.3
20210615073319 76 300 0.0 0.0 0.00 0.00 0.00 90 1013.3
20210615072813 76 300 0.0 0.0 0.00 0.00 0.00 91 1013.3
20210615072300 76 300 0.0 0.0 0.00 0.00 0.00 91 1013.3
20210615071758 76 300 0.0 0.0 0.00 0.00 0.00 91 1013.6
20210615071254 76 300 0.0 0.0 0.00 0.00 0.00 91 1013.6
20210615070749 76 300 0.0 0.0 0.00 0.00 0.00 92 1013.6
20210615070242 76 300 0.0 0.0 0.00 0.00 0.00 92 1013.6
20210615065737 76 300 0.0 0.0 0.00 0.00 0.00 92 1013.6
20210615065232 75 300 0.0 0.0 0.00 0.00 0.00 92 1013.6
20210615064731 75 300 0.0 0.0 0.00 0.00 0.00 91 1013.6
20210615064221 75 300 0.0 0.0 0.00 0.00 0.00 91 1013.6
20210615063717 75 300 0.0 0.0 0.00 0.00 0.00 91 1013.6
20210615063216 76 300 0.0 0.0 0.00 0.00 0.00 91 1014.0
20210615062714 76 300 0.0 0.0 0.00 0.00 0.00 89 1013.6
20210615062208 76 300 0.0 0.0 0.00 0.00 0.00 90 1013.6
20210615061704 76 300 0.0 0.0 0.00 0.00 0.00 90 1014.0
20210615061158 76 300 0.0 0.0 0.00 0.00 0.00 90 1014.0
20210615060658 76 300 0.0 0.0 0.00 0.00 0.00 91 1014.0
20210615060156 76 300 0.0 0.0 0.00 0.00 0.00 91 1013.6
20210615055653 76 300 0.0 0.0 0.00 0.00 0.00 91 1013.6
20210615055152 76 300 0.0 0.0 0.00 0.00 0.00 91 1013.6
20210615054647 76 300 0.0 0.0 0.00 0.00 0.00 90 1014.0
20210615054142 76 300 0.0 0.0 0.00 0.00 0.00 90 1013.6
20210615053638 76 300 0.0 0.0 0.00 0.00 0.00 89 1013.6
20210615053135 76 300 0.0 0.0 0.00 0.00 0.00 90 1014.0
20210615052630 76 300 0.0 0.0 0.00 0.00 0.00 91 1014.0
20210615052125 76 300 0.0 0.0 0.00 0.00 0.00 91 1013.6
20210615051623 76 300 0.0 0.0 0.00 0.00 0.00 91 1014.0
20210615051117 76 300 1.0 1.0 0.00 0.00 0.00 91 1014.0
20210615050612 76 300 0.0 0.0 0.00 0.00 0.00 91 1013.6
20210615050110 77 300 1.0 1.0 0.00 0.00 0.00 91 1014.0
20210615045606 77 312 2.0 2.0 0.00 0.00 0.00 91 1014.0
20210615045057 77 306 2.0 2.0 0.00 0.00 0.00 91 1014.0
20210615044556 77 306 2.0 2.0 0.00 0.00 0.00 91 1013.6
20210615044055 77 307 3.0 3.0 0.00 0.00 0.00 91 1013.6
20210615043555 77 336 2.0 2.0 0.00 0.00 0.00 91 1013.6
20210615043044 77 312 2.0 2.0 0.00 0.00 0.00 90 1013.6
20210615042540 77 312 0.0 0.0 0.00 0.00 0.00 90 1014.0
20210615042037 77 312 0.0 0.0 0.00 0.00 0.00 90 1013.6
20210615041533 77 312 0.0 0.0 0.00 0.00 0.00 90 1013.3
20210615041031 77 312 0.0 0.0 0.00 0.00 0.00 90 1013.3
20210615040527 77 312 0.0 0.0 0.00 0.00 0.00 90 1013.3
20210615040023 77 312 0.0 0.0 0.00 0.00 0.00 90 1013.3
20210615035519 77 312 0.0 0.0 0.00 0.00 0.00 90 1013.3
20210615035015 77 312 0.0 0.0 0.00 0.00 0.00 89 1013.3
20210615034510 77 312 0.0 0.0 0.00 0.00 0.00 89 1013.3
20210615034008 77 312 0.0 0.0 0.00 0.00 0.00 89 1013.3
20210615033505 77 312 0.0 0.0 0.00 0.00 0.00 90 1013.3
20210615032959 77 312 0.0 0.0 0.00 0.00 0.00 89 1013.3
20210615032456 77 312 1.0 1.0 0.00 0.00 0.00 89 1013.3
20210615031952 77 312 0.0 0.0 0.00 0.00 0.00 89 1012.9
20210615031449 77 312 0.0 0.0 0.00 0.00 0.00 89 1012.9
20210615030946 77 312 0.0 0.0 0.00 0.00 0.00 88 1012.6
20210615030442 77 312 2.0 2.0 0.00 0.00 0.00 88 1012.9
20210615025937 77 294 0.0 0.0 0.00 0.00 0.00 88 1012.9
20210615025429 78 294 0.0 0.0 0.00 0.00 0.00 88 1012.9
20210615024928 78 294 2.0 2.0 0.00 0.00 0.00 87 1012.9
20210615024422 78 228 0.0 0.0 0.00 0.00 0.00 88 1012.9
20210615023912 78 228 0.0 0.0 0.00 0.00 0.00 86 1012.9
20210615023412 78 228 0.0 0.0 0.00 0.00 0.00 86 1012.6
20210615022907 78 204 0.0 0.0 0.00 0.00 0.00 86 1012.6
20210615022404 78 204 0.0 0.0 0.00 0.00 0.00 86 1012.6
20210615021900 78 204 0.0 0.0 0.00 0.00 0.00 86 1012.9
20210615021359 78 204 0.0 0.0 0.00 0.00 0.00 86 1012.9
20210615020854 78 204 1.0 1.0 0.00 0.00 0.00 85 1012.9
20210615020351 78 204 0.0 0.0 0.00 0.00 0.00 85 1012.6
20210615015851 79 204 0.0 0.0 0.00 0.00 0.00 85 1012.9
20210615015349 79 195 2.0 2.0 0.00 0.00 0.00 85 1012.6
20210615014847 79 195 0.0 0.0 0.00 0.00 0.00 84 1012.6
20210615014344 80 163 0.0 0.0 0.00 0.00 0.00 83 1012.6
20210615013840 80 163 0.0 0.0 0.00 0.00 0.00 83 1012.6
20210615013335 80 163 0.0 0.0 0.00 0.00 0.00 82 1012.6
20210615012829 80 163 0.0 0.0 0.00 0.00 0.00 81 1012.6
20210615012328 80 163 0.0 0.0 0.00 0.00 0.00 80 1012.6
20210615011822 81 163 1.0 1.0 0.00 0.00 0.00 80 1012.6
20210615011315 81 151 0.0 0.0 0.00 0.00 0.00 79 1012.3
20210615010813 82 150 0.0 0.0 0.00 0.00 0.00 79 1012.3
20210615010308 82 150 1.0 1.0 0.00 0.00 0.00 77 1012.3
20210615005803 83 150 0.0 0.0 0.00 0.00 0.00 75 1012.3
20210615005259 83 150 0.0 0.0 0.00 0.00 0.00 74 1012.3
20210615004755 83 150 0.0 0.0 0.00 0.00 0.00 74 1012.3
20210615004253 83 150 2.0 2.0 0.00 0.00 0.00 73 1012.6
20210615003748 82 150 1.0 1.0 0.00 0.00 0.00 73 1012.3
20210615003241 82 126 2.0 2.0 0.00 0.00 0.00 73 1012.3
20210615002735 83 166 0.0 0.0 0.00 0.00 0.00 71 1012.3
20210615002235 82 174 2.0 2.0 0.00 0.00 0.00 71 1012.3
20210615001730 82 149 2.0 2.0 0.00 0.00 0.00 74 1012.3
20210615001225 82 142 2.0 2.0 0.00 0.00 0.00 71 1012.3
20210615000724 83 142 3.0 3.0 0.00 0.00 0.00 70 1012.3
20210615000215 83 174 0.0 0.0 0.00 0.00 0.00 70 1012.3
20210614235703 82 174 0.0 0.0 0.00 0.00 0.00 73 1012.3
20210614235202 82 156 1.0 1.0 0.00 0.00 0.00 71 1012.6
20210614234701 82 168 2.0 2.0 0.00 0.00 0.00 71 1012.6
20210614234155 82 159 2.0 2.0 0.00 0.00 0.00 72 1012.6
20210614233651 82 149 3.0 4.0 0.00 0.00 0.00 72 1012.6
20210614233150 81 139 3.0 4.0 0.00 0.00 0.00 71 1012.6
20210614232627 81 156 2.0 2.0 0.00 0.00 0.00 71 1012.3
20210614232122 81 168 3.0 3.0 0.00 0.00 0.00 69 1012.3
20210614231615 82 148 3.0 3.0 0.00 0.00 0.00 70 1012.3
20210614231115 82 186 3.0 3.0 0.00 0.00 0.00 68 1012.3
20210614230614 82 187 2.0 2.0 0.00 0.00 0.00 68 1012.6
20210614230112 82 138 2.0 2.0 0.00 0.00 0.00 67 1012.6
20210614225609 83 120 3.0 3.0 0.00 0.00 0.00 69 1012.6
20210614225108 83 150 3.0 3.0 0.00 0.00 0.00 68 1012.3
20210614224606 83 168 2.0 2.0 0.00 0.00 0.00 65 1011.9
20210614224101 83 168 0.0 0.0 0.00 0.00 0.00 64 1012.3
20210614223558 83 168 0.0 0.0 0.00 0.00 0.00 67 1012.3
20210614223055 84 168 2.0 2.0 0.00 0.00 0.00 63 1012.3
20210614222551 83 168 1.0 1.0 0.00 0.00 0.00 64 1012.3
20210614222030 83 35 2.0 2.0 0.00 0.00 0.00 67 1012.3
20210614221527 84 35 2.0 2.0 0.00 0.00 0.00 66 1012.3
20210614221022 84 35 0.0 0.0 0.00 0.00 0.00 60 1012.3
20210614220521 83 35 0.0 0.0 0.00 0.00 0.00 65 1012.6
20210614220017 83 35 0.0 0.0 0.00 0.00 0.00 65 1012.6
20210614215516 82 35 0.0 0.0 0.00 0.00 0.00 66 1012.6
20210614215016 82 35 0.0 0.0 0.00 0.00 0.00 62 1012.6
20210614214512 81 35 0.0 0.0 0.00 0.00 0.00 63 1012.3
20210614214009 80 35 0.0 0.0 0.00 0.00 0.00 64 1012.3
20210614213506 78 4 3.0 3.0 0.00 0.00 0.00 63 1011.9
20210614213002 76 330 6.0 6.0 0.00 0.00 0.00 76 1012.3
20210614212459 76 348 6.0 6.0 0.00 0.00 0.00 81 1012.6
20210614211955 76 5 13.0 15.0 0.00 0.00 0.00 73 1013.3
20210614211450 78 18 11.0 13.0 0.00 0.00 0.00 67 1013.3
20210614210946 79 3 8.0 9.0 0.00 0.00 0.00 66 1014.0
20210614210441 81 30 6.0 7.0 0.00 0.00 0.00 61 1014.0
20210614205940 82 35 6.0 7.0 0.00 0.00 0.00 55 1013.6
20210614205436 85 12 7.0 7.0 0.00 0.00 0.00 50 1013.6
20210614204904 86 58 11.0 12.0 0.00 0.00 0.00 50 1012.9
20210614204401 95 30 5.0 6.0 0.00 0.00 0.00 49 1012.3
20210614203842 94 23 3.0 4.0 0.00 0.00 0.00 50 1012.6
20210614203339 92 318 3.0 3.0 0.00 0.00 0.00 56 1012.6
20210614202829 92 312 2.0 2.0 0.00 0.00 0.00 55 1012.6
20210614202325 92 312 4.0 4.0 0.00 0.00 0.00 55 1012.6
20210614201821 94 318 3.0 3.0 0.00 0.00 0.00 52 1012.6
20210614201319 95 12 1.0 1.0 0.00 0.00 0.00 46 1012.6
20210614200815 94 79 3.0 3.0 0.00 0.00 0.00 47 1012.6
20210614200310 94 318 4.0 4.0 0.00 0.00 0.00 48 1012.6
20210614195806 94 6 4.0 4.0 0.00 0.00 0.00 49 1012.9
20210614195301 94 354 4.0 4.0 0.00 0.00 0.00 48 1012.6
20210614194801 94 31 3.0 3.0 0.00 0.00 0.00 51 1012.9
20210614194258 95 288 2.0 2.0 0.00 0.00 0.00 47 1013.3
20210614193756 94 354 3.0 3.0 0.00 0.00 0.00 47 1013.3
20210614193254 94 312 2.0 2.0 0.00 0.00 0.00 49 1013.3
20210614192748 93 336 3.0 3.0 0.00 0.00 0.00 49 1013.3
20210614192242 92 318 3.0 4.0 0.00 0.00 0.00 51 1013.3
20210614191736 94 354 0.0 0.0 0.00 0.00 0.00 47 1013.3
20210614191235 93 293 2.0 2.0 0.00 0.00 0.00 52 1013.6